createdAt,value
2022-11-20T00:01:33.121Z,-2.06
2022-11-20T00:04:01.433Z,-2.11
2022-11-20T00:06:29.865Z,-2.11
2022-11-20T00:09:00.890Z,-2.14
2022-11-20T00:11:30.504Z,-2.19
2022-11-20T00:14:01.670Z,-2.15
2022-11-20T00:16:32.746Z,-2.15
2022-11-20T00:19:00.175Z,-2.19
2022-11-20T00:21:29.480Z,-2.18
2022-11-20T00:23:58.139Z,-2.13
2022-11-20T00:26:28.104Z,-2.11
2022-11-20T00:28:59.755Z,-2.13
2022-11-20T00:31:28.467Z,-2.18
2022-11-20T00:33:56.065Z,-2.21
2022-11-20T00:36:27.704Z,-2.18
2022-11-20T00:38:58.496Z,-2.16
2022-11-20T00:41:30.040Z,-2.21
2022-11-20T00:43:58.088Z,-2.29
2022-11-20T00:46:28.610Z,-2.29
2022-11-20T00:48:56.311Z,-2.24
2022-11-20T00:51:26.364Z,-2.20
2022-11-20T00:53:57.495Z,-2.20
2022-11-20T00:56:24.886Z,-2.27
2022-11-20T00:58:52.327Z,-2.29
2022-11-20T01:01:26.283Z,-2.33
2022-11-20T01:03:58.677Z,-2.34
2022-11-20T01:06:28.955Z,-2.31
2022-11-20T01:08:59.947Z,-2.39
2022-11-20T01:11:31.914Z,-2.46
2022-11-20T01:14:02.853Z,-2.43
2022-11-20T01:16:34.945Z,-2.44
2022-11-20T01:19:05.242Z,-2.43
2022-11-20T01:21:39.989Z,-2.47
2022-11-20T01:24:11.566Z,-2.51
2022-11-20T01:26:41.794Z,-2.53
2022-11-20T01:29:25.479Z,-2.49
2022-11-20T01:31:53.981Z,-2.47
2022-11-20T01:34:23.731Z,-2.43
2022-11-20T01:36:53.791Z,-2.45
2022-11-20T01:39:25.320Z,-2.53
2022-11-20T01:42:13.909Z,-2.55
2022-11-20T01:44:57.578Z,-2.56
2022-11-20T01:47:31.154Z,-2.61
2022-11-20T01:50:12.675Z,-2.65
2022-11-20T01:52:57.245Z,-2.69
2022-11-20T01:55:37.338Z,-2.64
2022-11-20T01:58:06.927Z,-2.58
2022-11-20T02:00:34.329Z,-2.61
2022-11-20T02:03:09.488Z,-2.68
2022-11-20T02:05:43.818Z,-2.65
2022-11-20T02:08:11.751Z,-2.65
2022-11-20T02:10:39.363Z,-2.70
2022-11-20T02:13:25.797Z,-2.67
2022-11-20T02:15:53.609Z,-2.65
2022-11-20T02:18:24.104Z,-2.63
2022-11-20T02:21:14.094Z,-2.66
2022-11-20T02:23:59.449Z,-2.73
2022-11-20T02:26:32.013Z,-2.75
2022-11-20T02:29:02.883Z,-2.73
2022-11-20T02:31:36.369Z,-2.77
2022-11-20T02:34:03.783Z,-2.79
2022-11-20T02:36:36.370Z,-2.77
2022-11-20T02:39:05.430Z,-2.75
2022-11-20T02:41:38.471Z,-2.84
2022-11-20T02:44:06.884Z,-2.86
2022-11-20T02:46:35.285Z,-2.91
2022-11-20T02:49:05.464Z,-2.96
2022-11-20T02:51:33.711Z,-2.92
2022-11-20T02:54:01.105Z,-2.86
2022-11-20T02:56:28.628Z,-2.86
2022-11-20T02:58:56.554Z,-2.84
2022-11-20T03:01:24.085Z,-2.85
2022-11-20T03:03:51.563Z,-2.90
2022-11-20T03:06:18.915Z,-2.87
2022-11-20T03:08:46.279Z,-2.88
2022-11-20T03:11:13.694Z,-2.92
2022-11-20T03:13:41.206Z,-2.90
2022-11-20T03:16:13.141Z,-2.91
2022-11-20T03:18:42.600Z,-2.89
2022-11-20T03:21:13.013Z,-2.90
2022-11-20T03:23:41.271Z,-2.93
2022-11-20T03:26:29.453Z,-2.89
2022-11-20T03:28:59.911Z,-2.93
2022-11-20T03:31:34.319Z,-3.01
2022-11-20T03:34:03.788Z,-3.05
2022-11-20T03:36:31.873Z,-3.06
2022-11-20T03:38:59.704Z,-3.01
2022-11-20T03:41:31.330Z,-2.97
2022-11-20T03:44:05.502Z,-3.00
2022-11-20T03:46:33.397Z,-3.06
2022-11-20T03:49:00.959Z,-3.06
2022-11-20T03:51:35.490Z,-3.02
2022-11-20T03:54:07.644Z,-3.01
2022-11-20T03:56:38.562Z,-3.04
2022-11-20T03:59:07.087Z,-3.11
2022-11-20T04:01:43.166Z,-3.20
2022-11-20T04:04:14.203Z,-3.27
2022-11-20T04:06:41.851Z,-3.25
2022-11-20T04:09:09.186Z,-3.30
2022-11-20T04:11:40.637Z,-3.35
2022-11-20T04:14:15.539Z,-3.37
2022-11-20T04:16:43.873Z,-3.38
2022-11-20T04:19:14.756Z,-3.43
2022-11-20T04:21:44.672Z,-3.53
2022-11-20T04:24:12.313Z,-3.58
2022-11-20T04:26:40.651Z,-3.55
2022-11-20T04:29:11.330Z,-3.53
2022-11-20T04:31:38.720Z,-3.53
2022-11-20T04:34:08.037Z,-3.52
2022-11-20T04:36:36.002Z,-3.54
2022-11-20T04:39:07.399Z,-3.49
2022-11-20T04:41:37.525Z,-3.49
2022-11-20T04:44:07.244Z,-3.53
2022-11-20T04:46:41.852Z,-3.52
2022-11-20T04:49:14.130Z,-3.48
2022-11-20T04:51:41.640Z,-3.47
2022-11-20T04:54:12.057Z,-3.48
2022-11-20T04:56:39.472Z,-3.42
2022-11-20T04:59:08.377Z,-3.36
2022-11-20T05:01:35.822Z,-3.44
2022-11-20T05:04:03.243Z,-3.55
2022-11-20T05:06:30.648Z,-3.64
2022-11-20T05:08:58.598Z,-3.67
2022-11-20T05:11:26.186Z,-3.65
2022-11-20T05:13:53.545Z,-3.67
2022-11-20T05:16:25.534Z,-3.56
2022-11-20T05:18:55.180Z,-3.56
2022-11-20T05:21:23.511Z,-3.59
2022-11-20T05:23:50.899Z,-3.58
2022-11-20T05:26:22.529Z,-3.55
2022-11-20T05:28:51.476Z,-3.55
2022-11-20T05:31:27.206Z,-3.56
2022-11-20T05:33:58.098Z,-3.49
2022-11-20T05:36:25.621Z,-3.51
2022-11-20T05:38:56.708Z,-3.53
2022-11-20T05:41:27.292Z,-3.57
2022-11-20T05:43:54.643Z,-3.59
2022-11-20T05:46:28.726Z,-3.52
2022-11-20T05:48:58.126Z,-3.52
2022-11-20T05:51:27.955Z,-3.49
2022-11-20T05:53:58.467Z,-3.50
2022-11-20T05:56:25.897Z,-3.54
2022-11-20T05:58:53.385Z,-3.56
2022-11-20T06:01:26.302Z,-3.58
2022-11-20T06:03:55.086Z,-3.50
2022-11-20T06:06:23.308Z,-3.50
2022-11-20T06:08:50.806Z,-3.53
2022-11-20T06:11:18.338Z,-3.55
2022-11-20T06:13:46.893Z,-3.55
2022-11-20T06:16:18.083Z,-3.55
2022-11-20T06:18:46.584Z,-3.58
2022-11-20T06:21:20.677Z,-3.54
2022-11-20T06:23:50.201Z,-3.57
2022-11-20T06:26:24.107Z,-3.65
2022-11-20T06:28:52.980Z,-3.69
2022-11-20T06:31:23.894Z,-3.70
2022-11-20T06:33:52.692Z,-3.72
2022-11-20T06:36:23.306Z,-3.73
2022-11-20T06:38:51.682Z,-3.73
2022-11-20T06:41:23.594Z,-3.71
2022-11-20T06:43:51.215Z,-3.73
2022-11-20T06:46:20.667Z,-3.69
2022-11-20T06:48:49.527Z,-3.68
2022-11-20T06:51:17.582Z,-3.72
2022-11-20T06:53:44.980Z,-3.72
2022-11-20T06:56:12.370Z,-3.71
2022-11-20T06:58:39.828Z,-3.65
2022-11-20T07:01:11.239Z,-3.56
2022-11-20T07:03:41.176Z,-3.57
2022-11-20T07:06:09.752Z,-3.61
2022-11-20T07:08:37.477Z,-3.64
2022-11-20T07:11:07.791Z,-3.65
2022-11-20T07:13:35.408Z,-3.60
2022-11-20T07:16:08.907Z,-3.51
2022-11-20T07:18:37.163Z,-3.52
2022-11-20T07:21:08.032Z,-3.56
2022-11-20T07:23:36.015Z,-3.58
2022-11-20T07:26:09.022Z,-3.56
2022-11-20T07:28:37.262Z,-3.56
2022-11-20T07:31:05.847Z,-3.54
2022-11-20T07:33:33.596Z,-3.53
2022-11-20T07:36:01.521Z,-3.47
2022-11-20T07:38:29.584Z,-3.48
2022-11-20T07:41:02.342Z,-3.51
2022-11-20T07:43:30.030Z,-3.48
2022-11-20T07:45:59.668Z,-3.50
2022-11-20T07:48:29.202Z,-3.46
2022-11-20T07:50:57.783Z,-3.37
2022-11-20T07:53:25.623Z,-3.32
2022-11-20T07:55:53.457Z,-3.18
2022-11-20T07:58:22.168Z,-3.10
2022-11-20T08:00:49.806Z,-3.05
2022-11-20T08:03:23.153Z,-2.96
2022-11-20T08:05:52.537Z,-2.85
2022-11-20T08:08:20.453Z,-2.71
2022-11-20T08:10:47.791Z,-2.65
2022-11-20T08:13:33.858Z,-2.62
2022-11-20T08:16:01.218Z,-2.53
2022-11-20T08:18:31.871Z,-2.45
2022-11-20T08:21:05.439Z,-2.41
2022-11-20T08:23:32.839Z,-2.30
2022-11-20T08:26:00.253Z,-2.17
2022-11-20T08:28:27.671Z,-2.08
2022-11-20T08:31:01.573Z,-2.05
2022-11-20T08:33:29.244Z,-2.02
2022-11-20T08:36:05.342Z,-1.95
2022-11-20T08:38:33.587Z,-1.93
2022-11-20T08:41:22.478Z,-1.90
2022-11-20T08:43:51.482Z,-1.82
2022-11-20T08:46:19.390Z,-1.70
2022-11-20T08:48:46.810Z,-1.59
2022-11-20T08:51:14.756Z,-1.50
2022-11-20T08:53:42.718Z,-1.41
2022-11-20T08:56:10.719Z,-1.33
2022-11-20T08:59:02.050Z,-1.31
2022-11-20T09:01:28.392Z,-1.32
2022-11-20T09:04:00.514Z,-1.30
2022-11-20T09:06:28.179Z,-1.25
2022-11-20T09:08:55.905Z,-1.17
2022-11-20T09:11:23.784Z,-1.11
2022-11-20T09:13:51.581Z,-1.05
2022-11-20T09:16:19.026Z,-1.00
2022-11-20T09:18:46.571Z,-0.91
2022-11-20T09:21:15.180Z,-0.78
2022-11-20T09:23:42.666Z,-0.70
2022-11-20T09:26:14.737Z,-0.64
2022-11-20T09:28:42.317Z,-0.58
2022-11-20T09:31:23.828Z,-0.55
2022-11-20T09:33:51.311Z,-0.54
2022-11-20T09:36:19.587Z,-0.49
2022-11-20T09:38:48.187Z,-0.40
2022-11-20T09:41:49.053Z,-0.27
2022-11-20T09:44:55.265Z,-0.17
2022-11-20T09:48:19.303Z,-0.07
2022-11-20T09:51:23.086Z,0.06
2022-11-20T09:54:06.599Z,0.13
2022-11-20T09:56:41.736Z,0.20
2022-11-20T09:59:29.560Z,0.27
2022-11-20T10:01:59.358Z,0.33
2022-11-20T10:04:29.318Z,0.39
2022-11-20T10:07:32.908Z,0.48
2022-11-20T10:10:01.257Z,0.56
2022-11-20T10:13:03.064Z,0.63
2022-11-20T10:15:46.409Z,0.70
2022-11-20T10:18:24.428Z,0.76
2022-11-20T10:21:14.178Z,0.84
2022-11-20T10:24:24.940Z,0.92
2022-11-20T10:27:43.620Z,1.02
2022-11-20T10:30:18.707Z,1.07
2022-11-20T10:32:57.004Z,1.15
2022-11-20T10:35:44.028Z,1.18
2022-11-20T10:38:25.763Z,1.18
2022-11-20T10:41:20.128Z,1.20
2022-11-20T10:43:51.647Z,1.25
2022-11-20T10:46:25.131Z,1.29
2022-11-20T10:48:52.726Z,1.32
2022-11-20T10:51:41.013Z,1.39
2022-11-20T10:54:47.218Z,1.43
2022-11-20T10:57:37.944Z,1.46
2022-11-20T11:00:10.711Z,1.49
2022-11-20T11:02:54.035Z,1.51
2022-11-20T11:05:21.391Z,1.52
2022-11-20T11:07:56.620Z,1.59
2022-11-20T11:10:37.055Z,1.65
2022-11-20T11:13:04.467Z,1.69
2022-11-20T11:15:41.288Z,1.76
2022-11-20T11:18:12.501Z,1.80
2022-11-20T11:20:39.882Z,1.86
2022-11-20T11:23:29.596Z,1.94
2022-11-20T11:26:00.314Z,1.97
2022-11-20T11:28:30.742Z,2.03
2022-11-20T11:30:58.307Z,2.10
2022-11-20T11:33:29.551Z,2.18
2022-11-20T11:36:02.557Z,2.26
2022-11-20T11:38:41.654Z,2.34
2022-11-20T11:41:19.700Z,2.38
2022-11-20T11:44:35.014Z,2.41
2022-11-20T11:47:07.224Z,2.41
2022-11-20T11:49:34.616Z,2.45
2022-11-20T11:52:20.437Z,2.47
2022-11-20T11:55:11.367Z,2.50
2022-11-20T11:57:55.427Z,2.49
2022-11-20T12:00:25.729Z,2.48
2022-11-20T12:03:23.764Z,2.51
2022-11-20T12:06:21.212Z,2.53
2022-11-20T12:09:20.540Z,2.55
2022-11-20T12:12:09.742Z,2.54
2022-11-20T12:14:58.180Z,2.57
2022-11-20T12:17:37.735Z,2.58
2022-11-20T12:20:22.708Z,2.61
2022-11-20T12:23:36.098Z,2.65
2022-11-20T12:26:46.759Z,2.68
2022-11-20T12:29:51.572Z,2.72
2022-11-20T12:33:06.461Z,2.76
2022-11-20T12:36:28.239Z,2.80
2022-11-20T12:39:26.032Z,2.84
2022-11-20T12:42:28.666Z,2.86
2022-11-20T12:45:47.350Z,2.87
2022-11-20T12:48:50.924Z,2.88
2022-11-20T12:52:08.847Z,2.89
2022-11-20T12:55:29.002Z,2.92
2022-11-20T12:59:02.471Z,2.91
2022-11-20T13:02:33.238Z,2.90
2022-11-20T13:06:45.578Z,2.90
2022-11-20T13:14:16.035Z,2.93
2022-11-20T13:18:24.192Z,2.98
2022-11-20T13:25:27.651Z,3.06
2022-11-20T13:28:17.611Z,3.10
2022-11-20T13:31:12.222Z,3.15
2022-11-20T13:34:26.981Z,3.17
2022-11-20T13:37:31.673Z,3.21
2022-11-20T13:40:31.870Z,3.25
2022-11-20T13:44:06.460Z,3.29
2022-11-20T13:47:03.193Z,3.29
2022-11-20T13:50:12.056Z,3.31
2022-11-20T13:53:38.324Z,3.34
2022-11-20T13:56:47.453Z,3.34
2022-11-20T13:59:39.604Z,3.34
2022-11-20T14:02:18.723Z,3.33
2022-11-20T14:04:50.991Z,3.33
2022-11-20T14:07:24.734Z,3.33
2022-11-20T14:09:56.704Z,3.34
2022-11-20T14:12:34.533Z,3.37
2022-11-20T14:15:02.410Z,3.36
2022-11-20T14:17:29.636Z,3.36
2022-11-20T14:20:05.990Z,3.39
2022-11-20T14:22:33.631Z,3.39
2022-11-20T14:25:12.845Z,3.41
2022-11-20T14:27:44.925Z,3.42
2022-11-20T14:30:20.234Z,3.45
2022-11-20T14:32:49.212Z,3.47
2022-11-20T14:35:30.255Z,3.47
2022-11-20T14:37:58.565Z,3.47
2022-11-20T14:40:37.485Z,3.47
2022-11-20T14:43:26.610Z,3.48
2022-11-20T14:46:00.693Z,3.49
2022-11-20T14:48:39.100Z,3.51
2022-11-20T14:51:06.621Z,3.50
2022-11-20T14:53:33.978Z,3.51
2022-11-20T14:56:03.273Z,3.52
2022-11-20T14:58:34.558Z,3.53
2022-11-20T15:01:06.682Z,3.54
2022-11-20T15:03:41.019Z,3.52
2022-11-20T15:06:13.053Z,3.54
2022-11-20T15:08:52.625Z,3.55
2022-11-20T15:11:29.222Z,3.55
2022-11-20T15:13:57.842Z,3.55
2022-11-20T15:16:27.718Z,3.58
2022-11-20T15:18:56.119Z,3.58
2022-11-20T15:21:24.234Z,3.57
2022-11-20T15:23:51.830Z,3.56
2022-11-20T15:26:27.652Z,3.58
2022-11-20T15:28:55.084Z,3.59
2022-11-20T15:31:24.749Z,3.62
2022-11-20T15:33:52.475Z,3.63
2022-11-20T15:36:19.847Z,3.63
2022-11-20T15:38:47.280Z,3.65
2022-11-20T15:41:14.722Z,3.63
2022-11-20T15:43:42.059Z,3.62
2022-11-20T15:46:14.633Z,3.63
2022-11-20T15:48:53.882Z,3.62
2022-11-20T15:51:31.448Z,3.61
2022-11-20T15:53:59.356Z,3.60
2022-11-20T15:56:27.520Z,3.61
2022-11-20T15:58:54.953Z,3.61
2022-11-20T16:01:23.202Z,3.63
2022-11-20T16:03:50.636Z,3.64
2022-11-20T16:06:18.182Z,3.66
2022-11-20T16:08:45.738Z,3.69
2022-11-20T16:11:16.491Z,3.70
2022-11-20T16:14:03.497Z,3.72
2022-11-20T16:16:38.617Z,3.74
2022-11-20T16:19:06.194Z,3.74
2022-11-20T16:21:33.670Z,3.76
2022-11-20T16:24:05.079Z,3.77
2022-11-20T16:26:34.523Z,3.78
2022-11-20T16:29:04.508Z,3.81
2022-11-20T16:31:33.047Z,3.81
2022-11-20T16:34:11.458Z,3.85
2022-11-20T16:36:45.754Z,3.87
2022-11-20T16:39:13.387Z,3.89
2022-11-20T16:41:40.796Z,3.91
2022-11-20T16:44:11.498Z,3.93
2022-11-20T16:46:40.857Z,3.95
2022-11-20T16:49:14.275Z,3.99
2022-11-20T16:51:42.706Z,3.99
2022-11-20T16:54:13.948Z,3.99
2022-11-20T16:56:43.911Z,4.01
2022-11-20T16:59:12.431Z,4.03
2022-11-20T17:01:41.724Z,4.06
2022-11-20T17:04:09.424Z,4.06
2022-11-20T17:06:41.365Z,4.08
2022-11-20T17:09:09.545Z,4.09
2022-11-20T17:11:37.742Z,4.11
2022-11-20T17:14:08.845Z,4.13
2022-11-20T17:16:37.566Z,4.15
2022-11-20T17:19:05.342Z,4.18
2022-11-20T17:21:39.330Z,4.22
2022-11-20T17:24:10.658Z,4.24
2022-11-20T17:26:41.425Z,4.25
2022-11-20T17:29:18.578Z,4.29
2022-11-20T17:31:46.405Z,4.30
2022-11-20T17:34:15.754Z,4.31
2022-11-20T17:36:47.436Z,4.33
2022-11-20T17:39:16.424Z,4.33
2022-11-20T17:41:44.175Z,4.36
2022-11-20T17:44:13.285Z,4.42
2022-11-20T17:46:41.073Z,4.47
2022-11-20T17:49:08.736Z,4.49
2022-11-20T17:51:36.107Z,4.52
2022-11-20T17:54:07.646Z,4.53
2022-11-20T17:56:54.712Z,4.55
2022-11-20T17:59:23.770Z,4.58
2022-11-20T18:01:51.212Z,4.60
2022-11-20T18:04:18.851Z,4.63
2022-11-20T18:06:46.247Z,4.66
2022-11-20T18:09:13.656Z,4.68
2022-11-20T18:11:43.172Z,4.70
2022-11-20T18:14:26.500Z,4.72
2022-11-20T18:16:57.820Z,4.74
2022-11-20T18:19:32.499Z,4.76
2022-11-20T18:22:04.067Z,4.80
2022-11-20T18:24:32.918Z,4.82
2022-11-20T18:27:00.370Z,4.84
2022-11-20T18:29:28.801Z,4.88
2022-11-20T18:31:56.303Z,4.91
2022-11-20T18:34:24.336Z,4.93
2022-11-20T18:36:52.630Z,4.95
2022-11-20T18:39:19.985Z,4.96
2022-11-20T18:42:06.319Z,4.97
2022-11-20T18:44:52.654Z,4.99
2022-11-20T18:47:27.811Z,4.99
2022-11-20T18:49:58.325Z,5.01
2022-11-20T18:52:29.893Z,5.03
2022-11-20T18:54:57.477Z,5.05
2022-11-20T18:57:27.575Z,5.08
2022-11-20T19:00:02.160Z,5.10
2022-11-20T19:02:40.567Z,5.14
2022-11-20T19:05:14.025Z,5.19
2022-11-20T19:07:42.316Z,5.26
2022-11-20T19:10:10.240Z,5.29
2022-11-20T19:12:37.660Z,5.31
2022-11-20T19:15:05.754Z,5.32
2022-11-20T19:17:34.222Z,5.31
2022-11-20T19:20:01.633Z,5.28
2022-11-20T19:22:29.091Z,5.24
2022-11-20T19:24:56.482Z,5.22
2022-11-20T19:27:24.081Z,5.19
2022-11-20T19:29:51.582Z,5.16
2022-11-20T19:32:19.146Z,5.15
2022-11-20T19:34:46.499Z,5.14
2022-11-20T19:37:13.884Z,5.14
2022-11-20T19:39:41.558Z,5.14
2022-11-20T19:42:08.921Z,5.13
2022-11-20T19:44:36.313Z,5.14
2022-11-20T19:47:09.040Z,5.13
2022-11-20T19:49:41.649Z,5.11
2022-11-20T19:52:09.298Z,5.10
2022-11-20T19:54:36.936Z,5.09
2022-11-20T19:57:04.463Z,5.06
2022-11-20T19:59:31.884Z,5.03
2022-11-20T20:01:59.290Z,5.00
2022-11-20T20:04:27.238Z,4.95
2022-11-20T20:06:54.746Z,4.92
2022-11-20T20:09:23.757Z,4.90
2022-11-20T20:11:51.302Z,4.86
2022-11-20T20:14:19.384Z,4.82
2022-11-20T20:16:46.821Z,4.80
2022-11-20T20:19:15.952Z,4.77
2022-11-20T20:21:44.317Z,4.75
2022-11-20T20:24:12.425Z,4.71
2022-11-20T20:26:40.793Z,4.69
2022-11-20T20:29:08.534Z,4.66
2022-11-20T20:31:35.986Z,4.64
2022-11-20T20:34:05.243Z,4.63
2022-11-20T20:36:33.012Z,4.60
2022-11-20T20:39:02.421Z,4.58
2022-11-20T20:41:30.659Z,4.55
2022-11-20T20:44:16.476Z,4.53
2022-11-20T20:46:43.902Z,4.51
2022-11-20T20:49:12.626Z,4.48
2022-11-20T20:51:40.032Z,4.45
2022-11-20T20:54:07.451Z,4.42
2022-11-20T20:56:34.852Z,4.42
2022-11-20T20:59:03.794Z,4.40
2022-11-20T21:01:31.254Z,4.39
2022-11-20T21:03:58.739Z,4.39
2022-11-20T21:06:26.701Z,4.39
2022-11-20T21:08:55.868Z,4.39
2022-11-20T21:11:23.242Z,4.39
2022-11-20T21:13:50.751Z,4.40
2022-11-20T21:16:24.958Z,4.41
2022-11-20T21:18:52.372Z,4.41
2022-11-20T21:21:38.382Z,4.39
2022-11-20T21:24:06.429Z,4.36
2022-11-20T21:26:33.790Z,4.34
2022-11-20T21:29:01.265Z,4.34
2022-11-20T21:31:30.046Z,4.32
2022-11-20T21:33:58.549Z,4.30
2022-11-20T21:36:29.537Z,4.28
2022-11-20T21:38:59.416Z,4.26
2022-11-20T21:41:32.594Z,4.23
2022-11-20T21:46:52.547Z,4.18
2022-11-20T21:49:19.937Z,4.17
2022-11-20T21:51:47.341Z,4.17
2022-11-20T21:54:14.812Z,4.16
2022-11-20T21:56:42.209Z,4.15
2022-11-20T21:59:13.576Z,4.14
2022-11-20T22:01:41.495Z,4.13
2022-11-20T22:04:14.934Z,4.13
2022-11-20T22:06:42.326Z,4.12
2022-11-20T22:09:10.998Z,4.11
2022-11-20T22:11:38.373Z,4.10
2022-11-20T22:14:21.398Z,4.09
2022-11-20T22:16:52.301Z,4.10
2022-11-20T22:19:21.706Z,4.10
2022-11-20T22:21:50.713Z,4.09
2022-11-20T22:24:21.367Z,4.09
2022-11-20T22:26:49.283Z,4.08
2022-11-20T22:29:21.224Z,4.07
2022-11-20T22:31:51.931Z,4.06
2022-11-20T22:34:20.403Z,4.07
2022-11-20T22:36:47.843Z,4.03
2022-11-20T22:39:15.303Z,4.02
2022-11-20T22:41:42.752Z,4.04
2022-11-20T22:44:14.449Z,4.03
2022-11-20T22:46:41.714Z,4.00
2022-11-20T22:49:09.498Z,3.98
2022-11-20T22:51:40.194Z,4.02
2022-11-20T22:54:11.073Z,4.05
2022-11-20T22:56:38.518Z,4.07
2022-11-20T22:59:06.033Z,4.09
2022-11-20T23:01:39.139Z,4.12
2022-11-20T23:04:10.225Z,4.12
2022-11-20T23:06:38.110Z,4.09
2022-11-20T23:09:07.360Z,4.05
2022-11-20T23:11:35.890Z,4.03
2022-11-20T23:14:13.377Z,4.02
2022-11-20T23:16:42.209Z,3.99
2022-11-20T23:19:14.413Z,3.98
2022-11-20T23:21:42.907Z,3.96
2022-11-20T23:24:11.339Z,3.97
2022-11-20T23:26:40.778Z,3.97
2022-11-20T23:29:08.313Z,3.95
2022-11-20T23:31:36.142Z,3.93
2022-11-20T23:34:04.459Z,3.93
2022-11-20T23:36:31.975Z,3.94
2022-11-20T23:38:59.381Z,3.95
2022-11-20T23:41:26.789Z,3.94
2022-11-20T23:43:54.986Z,3.94
2022-11-20T23:46:22.460Z,3.95
2022-11-20T23:48:49.915Z,3.97
2022-11-20T23:51:17.976Z,3.99
2022-11-20T23:53:45.678Z,3.99
2022-11-20T23:56:14.546Z,4.01
2022-11-20T23:58:43.000Z,4.01
